Overview Statistics Trail Chart Weather Telemetry Raw packets
 

This is the latest recevied weather packets stored in our database for station/object EA2FBA-10. If no packets are shown the sender has not sent any weather packets the latest 10 day(s).

<< 1 2 3 4 5 >>
Time Temp. Humidity Pressure Rain* Wind** Luminosity Snow
1788613889 28.33° C 39% 959.3 hPa - - - -
1788612989 26.67° C 43% 959.4 hPa - - - -
1788612088 26.11° C 46% 959.7 hPa - - - -
1788611198 28.89° C 40% 959.8 hPa - - - -
1788611188 28.89° C 40% 959.8 hPa - - - -
1788610297 27.22° C 46% 960 hPa - - - -
1788610288 27.22° C 46% 960 hPa - - - -
1788609397 27.22° C 45% 960.1 hPa - - - -
1788609388 27.22° C 45% 960.1 hPa - - - -
1788608488 27.22° C 48% 960.3 hPa - - - -
1788607597 25.56° C 52% 960.4 hPa - - - -
1788607588 25.56° C 52% 960.4 hPa - - - -
1788606697 25.56° C 53% 960.6 hPa - - - -
1788606688 25.56° C 53% 960.6 hPa - - - -
1788605787 25.56° C 55% 960.9 hPa - - - -
1788604887 25° C 54% 961.1 hPa - - - -
1788603987 25° C 55% 961.3 hPa - - - -
1788603087 25° C 55% 961.5 hPa - - - -
1788602197 24.44° C 55% 961.5 hPa - - - -
1788602187 24.44° C 55% 961.5 hPa - - - -
1788601297 24.44° C 56% 961.5 hPa - - - -
1788601287 24.44° C 56% 961.5 hPa - - - -
1788600387 23.89° C 57% 961.5 hPa - - - -
1788599487 23.89° C 58% 961.4 hPa - - - -
1788598587 23.33° C 58% 961.3 hPa - - - -

* Rain since midnight (hover to see other rain measurements)
** Current wind speed in m/s (hover to see current wind gust speed)